createdAt,value
2023-01-21T00:02:12.113Z,30.23
2023-01-21T00:04:41.749Z,30.77
2023-01-21T00:07:08.975Z,28.00
2023-01-21T00:09:36.251Z,32.30
2023-01-21T00:12:03.931Z,32.50
2023-01-21T00:14:31.706Z,33.03
2023-01-21T00:17:01.436Z,31.97
2023-01-21T00:19:30.724Z,26.77
2023-01-21T00:21:59.995Z,28.83
2023-01-21T00:24:31.778Z,31.57
2023-01-21T00:27:00.990Z,29.37
2023-01-21T00:29:28.139Z,31.03
2023-01-21T00:31:55.297Z,29.73
2023-01-21T00:34:22.477Z,30.80
2023-01-21T00:36:51.792Z,29.13
2023-01-21T00:39:21.517Z,32.40
2023-01-21T00:41:48.636Z,31.17
2023-01-21T00:44:16.417Z,29.03
2023-01-21T00:46:45.845Z,30.73
2023-01-21T00:49:13.006Z,30.07
2023-01-21T00:51:40.142Z,33.47
2023-01-21T00:54:09.525Z,31.67
2023-01-21T00:56:38.781Z,30.70
2023-01-21T00:59:08.497Z,30.67
2023-01-21T01:01:38.555Z,34.23
2023-01-21T01:04:11.070Z,31.50
2023-01-21T01:06:38.370Z,30.63
2023-01-21T01:09:05.597Z,35.17
2023-01-21T01:11:35.138Z,34.40
2023-01-21T01:14:02.569Z,32.90
2023-01-21T01:16:32.409Z,37.43
2023-01-21T01:19:03.920Z,37.60
2023-01-21T01:21:31.077Z,34.00
2023-01-21T01:24:01.862Z,33.57
2023-01-21T01:26:31.207Z,33.97
2023-01-21T01:29:02.758Z,35.27
2023-01-21T01:31:32.943Z,38.70
2023-01-21T01:34:02.624Z,36.50
2023-01-21T01:36:31.879Z,34.90
2023-01-21T01:38:59.203Z,40.70
2023-01-21T01:41:30.023Z,36.37
2023-01-21T01:44:24.245Z,36.40
2023-01-21T01:46:51.385Z,39.90
2023-01-21T01:49:24.570Z,37.10
2023-01-21T01:52:01.444Z,36.20
2023-01-21T01:54:53.315Z,40.57
2023-01-21T01:57:26.147Z,31.43
2023-01-21T01:59:55.782Z,39.10
2023-01-21T02:02:22.960Z,44.27
2023-01-21T02:04:58.131Z,38.13
2023-01-21T02:07:29.019Z,46.07
2023-01-21T02:09:56.526Z,38.00
2023-01-21T02:12:23.812Z,43.93
2023-01-21T02:14:51.247Z,40.03
2023-01-21T02:17:30.430Z,46.90
2023-01-21T02:20:29.609Z,38.77
2023-01-21T02:23:06.519Z,42.43
2023-01-21T02:25:45.307Z,44.90
2023-01-21T02:28:27.114Z,45.83
2023-01-21T02:31:14.935Z,46.37
2023-01-21T02:34:08.730Z,43.60
2023-01-21T02:36:43.373Z,41.90
2023-01-21T02:39:44.771Z,43.40
2023-01-21T02:42:39.682Z,44.50
2023-01-21T02:45:10.593Z,45.87
2023-01-21T02:48:13.844Z,41.90
2023-01-21T02:50:53.077Z,48.17
2023-01-21T02:53:33.804Z,44.77
2023-01-21T02:56:24.042Z,42.63
2023-01-21T02:59:02.792Z,41.57
2023-01-21T03:02:01.169Z,44.17
2023-01-21T03:05:09.004Z,45.67
2023-01-21T03:07:43.191Z,42.93
2023-01-21T03:10:22.686Z,48.33
2023-01-21T03:13:05.637Z,48.13
2023-01-21T03:16:10.565Z,52.23
2023-01-21T03:18:44.484Z,45.47
2023-01-21T03:21:16.903Z,50.33
2023-01-21T03:23:49.976Z,50.63
2023-01-21T03:26:23.332Z,47.33
2023-01-21T03:28:55.313Z,51.30
2023-01-21T03:31:28.341Z,47.67
2023-01-21T03:34:03.960Z,49.03
2023-01-21T03:36:55.361Z,49.67
2023-01-21T03:39:43.761Z,50.87
2023-01-21T03:42:11.465Z,48.63
2023-01-21T03:44:39.256Z,50.17
2023-01-21T03:47:20.672Z,48.53
2023-01-21T03:49:53.562Z,50.40
2023-01-21T03:52:25.103Z,52.83
2023-01-21T03:54:52.949Z,52.30
2023-01-21T03:57:20.069Z,54.17
2023-01-21T03:59:49.570Z,52.13
2023-01-21T04:02:20.285Z,52.97
2023-01-21T04:04:53.103Z,53.63
2023-01-21T04:07:22.824Z,55.60
2023-01-21T04:09:50.220Z,53.93
2023-01-21T04:12:17.696Z,54.17
2023-01-21T04:14:48.095Z,65.27
2023-01-21T04:17:17.759Z,54.63
2023-01-21T04:19:47.040Z,56.17
2023-01-21T04:22:16.341Z,55.43
2023-01-21T04:24:45.770Z,54.07
2023-01-21T04:27:15.392Z,51.30
2023-01-21T04:29:46.909Z,52.20
2023-01-21T04:32:14.013Z,59.27
2023-01-21T04:34:43.323Z,56.20
2023-01-21T04:37:12.490Z,54.90
2023-01-21T04:39:41.783Z,56.57
2023-01-21T04:42:13.733Z,57.47
2023-01-21T04:44:45.470Z,53.43
2023-01-21T04:47:14.874Z,55.10
2023-01-21T04:49:44.379Z,56.40
2023-01-21T04:52:16.153Z,55.60
2023-01-21T04:54:45.836Z,55.87
2023-01-21T04:57:12.970Z,57.77
2023-01-21T04:59:42.752Z,54.27
2023-01-21T05:02:09.977Z,56.63
2023-01-21T05:04:39.601Z,54.10
2023-01-21T05:07:07.108Z,54.47
2023-01-21T05:09:34.485Z,56.30
2023-01-21T05:12:07.148Z,52.63
2023-01-21T05:14:34.337Z,56.60
2023-01-21T05:17:03.725Z,58.30
2023-01-21T05:19:34.012Z,56.47
2023-01-21T05:22:01.281Z,55.67
2023-01-21T05:24:28.403Z,58.33
2023-01-21T05:26:55.545Z,53.90
2023-01-21T05:29:22.710Z,60.23
2023-01-21T05:31:50.020Z,56.90
2023-01-21T05:34:19.435Z,62.33
2023-01-21T05:36:48.949Z,57.77
2023-01-21T05:39:18.777Z,61.53
2023-01-21T05:41:48.884Z,59.33
2023-01-21T05:44:18.220Z,59.30
2023-01-21T05:46:47.618Z,57.80
2023-01-21T05:49:19.942Z,59.87
2023-01-21T05:51:47.071Z,59.63
2023-01-21T05:54:14.274Z,56.67
2023-01-21T05:56:41.418Z,59.67
2023-01-21T05:59:09.547Z,58.53
2023-01-21T06:01:38.949Z,60.03
2023-01-21T06:04:06.065Z,59.53
2023-01-21T06:06:33.706Z,61.90
2023-01-21T06:09:00.844Z,61.13
2023-01-21T06:11:27.996Z,55.20
2023-01-21T06:13:55.180Z,57.40
2023-01-21T06:16:22.269Z,56.70
2023-01-21T06:18:49.491Z,61.43
2023-01-21T06:21:16.618Z,59.80
2023-01-21T06:23:43.856Z,63.10
2023-01-21T06:26:11.465Z,61.73
2023-01-21T06:28:38.622Z,64.47
2023-01-21T06:31:05.949Z,59.53
2023-01-21T06:33:35.496Z,63.53
2023-01-21T06:36:04.966Z,61.13
2023-01-21T06:38:35.931Z,63.07
2023-01-21T06:41:03.605Z,62.53
2023-01-21T06:43:31.009Z,68.80
2023-01-21T06:45:58.210Z,64.60
2023-01-21T06:48:27.855Z,60.10
2023-01-21T06:50:59.715Z,71.47
2023-01-21T06:53:27.557Z,60.40
2023-01-21T06:55:57.492Z,62.50
2023-01-21T06:58:27.289Z,61.40
2023-01-21T07:00:59.372Z,64.50
2023-01-21T07:03:33.174Z,65.63
2023-01-21T07:06:02.420Z,65.67
2023-01-21T07:08:29.533Z,64.27
2023-01-21T07:10:56.671Z,64.87
2023-01-21T07:13:26.152Z,66.33
2023-01-21T07:15:53.342Z,72.60
2023-01-21T07:18:27.618Z,68.67
2023-01-21T07:20:59.637Z,67.70
2023-01-21T07:23:30.318Z,71.57
2023-01-21T07:25:58.001Z,65.43
2023-01-21T07:28:30.301Z,67.20
2023-01-21T07:31:10.846Z,71.43
2023-01-21T07:33:43.564Z,68.23
2023-01-21T07:36:10.720Z,68.60
2023-01-21T07:38:40.239Z,69.10
2023-01-21T07:41:07.416Z,67.77
2023-01-21T07:43:36.870Z,68.63
2023-01-21T07:46:04.177Z,65.37
2023-01-21T07:48:31.336Z,71.87
2023-01-21T07:51:02.445Z,75.57
2023-01-21T07:53:31.830Z,74.37
2023-01-21T07:56:02.898Z,71.53
2023-01-21T07:58:32.472Z,68.57
2023-01-21T08:01:05.296Z,71.37
2023-01-21T08:03:35.412Z,74.90
2023-01-21T08:06:06.409Z,70.30
2023-01-21T08:08:35.630Z,77.27
2023-01-21T08:11:05.410Z,74.30
2023-01-21T08:13:34.719Z,64.47
2023-01-21T08:16:01.872Z,66.83
2023-01-21T08:18:32.442Z,73.60
2023-01-21T08:21:00.209Z,70.13
2023-01-21T08:23:29.813Z,75.40
2023-01-21T08:25:56.972Z,70.77
2023-01-21T08:28:26.172Z,70.37
2023-01-21T08:31:02.136Z,74.50
2023-01-21T08:33:32.486Z,66.37
2023-01-21T08:36:04.388Z,77.60
2023-01-21T08:38:33.587Z,69.30
2023-01-21T08:41:03.412Z,74.10
2023-01-21T08:43:32.989Z,75.40
2023-01-21T08:46:01.743Z,72.27
2023-01-21T08:48:30.302Z,76.27
2023-01-21T08:51:02.894Z,71.77
2023-01-21T08:53:37.722Z,76.27
2023-01-21T08:56:08.026Z,69.30
2023-01-21T08:58:37.751Z,78.40
2023-01-21T09:01:09.496Z,70.30
2023-01-21T09:03:37.010Z,71.80
2023-01-21T09:06:06.964Z,75.17
2023-01-21T09:08:42.073Z,70.97
2023-01-21T09:11:11.762Z,70.30
2023-01-21T09:13:43.117Z,71.77
2023-01-21T09:16:14.891Z,75.00
2023-01-21T09:18:45.179Z,67.77
2023-01-21T09:21:15.246Z,77.57
2023-01-21T09:23:47.505Z,79.80
2023-01-21T09:26:17.167Z,71.83
2023-01-21T09:28:46.939Z,77.37
2023-01-21T09:31:16.792Z,70.53
2023-01-21T09:33:49.459Z,77.73
2023-01-21T09:36:21.296Z,71.13
2023-01-21T09:38:51.995Z,66.40
2023-01-21T09:41:27.363Z,70.37
2023-01-21T09:43:57.561Z,69.20
2023-01-21T09:46:30.699Z,67.00
2023-01-21T09:49:03.235Z,72.17
2023-01-21T09:52:09.013Z,71.03
2023-01-21T09:54:37.364Z,78.33
2023-01-21T09:57:16.768Z,72.70
2023-01-21T10:00:14.278Z,73.63
2023-01-21T10:02:50.378Z,67.73
2023-01-21T10:05:40.787Z,65.10
2023-01-21T10:08:13.425Z,70.83
2023-01-21T10:11:18.836Z,73.63
2023-01-21T10:14:16.135Z,66.90
2023-01-21T10:17:11.749Z,63.53
2023-01-21T10:20:11.630Z,71.53
2023-01-21T10:22:47.262Z,75.10
2023-01-21T10:25:27.833Z,73.43
2023-01-21T10:28:04.958Z,72.57
2023-01-21T10:30:42.320Z,70.23
2023-01-21T10:33:33.080Z,75.37
2023-01-21T10:36:35.001Z,75.37
2023-01-21T10:39:20.181Z,69.43
2023-01-21T10:42:03.211Z,72.43
2023-01-21T10:44:43.175Z,69.03
2023-01-21T10:47:16.048Z,71.23
2023-01-21T10:49:58.475Z,75.43
2023-01-21T10:52:58.492Z,74.80
2023-01-21T10:55:31.394Z,76.17
2023-01-21T10:58:28.831Z,69.83
2023-01-21T11:01:02.317Z,69.70
2023-01-21T11:03:41.397Z,77.30
2023-01-21T11:06:12.560Z,65.90
2023-01-21T11:08:43.066Z,68.07
2023-01-21T11:11:11.406Z,72.03
2023-01-21T11:13:41.710Z,74.80
2023-01-21T11:16:11.388Z,79.20
2023-01-21T11:18:41.957Z,70.13
2023-01-21T11:21:21.556Z,73.17
2023-01-21T11:23:59.391Z,67.30
2023-01-21T11:26:32.656Z,70.30
2023-01-21T11:29:17.474Z,74.63
2023-01-21T11:31:48.676Z,72.87
2023-01-21T11:34:23.131Z,75.67
2023-01-21T11:37:17.027Z,72.77
2023-01-21T11:39:59.156Z,73.07
2023-01-21T11:42:26.525Z,71.53
2023-01-21T11:45:24.991Z,68.20
2023-01-21T11:47:58.162Z,78.47
2023-01-21T11:50:33.092Z,72.10
2023-01-21T11:53:17.339Z,83.67
2023-01-21T11:55:53.672Z,83.43
2023-01-21T11:58:38.696Z,86.90
2023-01-21T12:01:09.048Z,77.57
2023-01-21T12:03:50.161Z,88.07
2023-01-21T12:06:23.209Z,81.60
2023-01-21T12:08:55.642Z,79.60
2023-01-21T12:11:26.732Z,81.57
2023-01-21T12:14:53.103Z,84.80
2023-01-21T12:17:46.845Z,87.00
2023-01-21T12:20:21.264Z,93.80
2023-01-21T12:23:26.117Z,87.07
2023-01-21T12:26:03.571Z,93.27
2023-01-21T12:28:40.819Z,94.07
2023-01-21T12:31:21.721Z,94.00
2023-01-21T12:34:01.120Z,88.40
2023-01-21T12:36:55.917Z,79.17
2023-01-21T12:39:37.651Z,87.03
2023-01-21T12:42:11.536Z,82.07
2023-01-21T12:44:50.875Z,83.83
2023-01-21T12:47:42.372Z,83.90
2023-01-21T12:50:27.132Z,80.57
2023-01-21T12:53:16.838Z,85.40
2023-01-21T12:56:01.394Z,71.37
2023-01-21T12:58:34.913Z,77.33
2023-01-21T13:01:11.196Z,78.57
2023-01-21T13:03:53.140Z,74.63
2023-01-21T13:06:53.208Z,73.60
2023-01-21T13:10:12.436Z,79.50
2023-01-21T13:12:46.403Z,76.37
2023-01-21T13:15:24.121Z,78.33
2023-01-21T13:17:59.228Z,73.67
2023-01-21T13:20:26.822Z,64.40
2023-01-21T13:22:59.038Z,63.30
2023-01-21T13:25:38.219Z,68.50
2023-01-21T13:28:23.847Z,74.73
2023-01-21T13:31:33.993Z,64.50
2023-01-21T13:34:26.988Z,72.93
2023-01-21T13:37:13.590Z,74.17
2023-01-21T13:39:43.703Z,70.30
2023-01-21T13:42:19.780Z,70.17
2023-01-21T13:45:25.729Z,72.43
2023-01-21T13:48:10.907Z,72.73
2023-01-21T13:51:19.910Z,72.83
2023-01-21T13:54:02.739Z,80.83
2023-01-21T13:56:45.446Z,80.33
2023-01-21T13:59:14.763Z,77.73
2023-01-21T14:02:00.807Z,81.80
2023-01-21T14:04:51.925Z,75.37
2023-01-21T14:07:55.800Z,83.17
2023-01-21T14:10:31.544Z,80.93
2023-01-21T14:13:33.443Z,80.03
2023-01-21T14:16:03.945Z,78.60
2023-01-21T14:18:37.235Z,84.67
2023-01-21T14:21:28.953Z,82.03
2023-01-21T14:24:11.014Z,74.90
2023-01-21T14:26:52.342Z,84.37
2023-01-21T14:29:22.180Z,80.20
2023-01-21T14:31:55.556Z,74.00
2023-01-21T14:34:25.100Z,74.40
2023-01-21T14:37:11.363Z,81.63
2023-01-21T14:39:53.939Z,80.07
2023-01-21T14:42:50.264Z,78.57
2023-01-21T14:45:22.255Z,74.70
2023-01-21T14:48:00.883Z,73.97
2023-01-21T14:50:48.415Z,78.10
2023-01-21T14:53:26.676Z,76.10
2023-01-21T14:56:16.585Z,71.03
2023-01-21T14:59:02.801Z,70.17
2023-01-21T15:01:47.270Z,71.73
2023-01-21T15:04:32.252Z,66.63
2023-01-21T15:07:09.086Z,74.03
2023-01-21T15:09:49.109Z,68.93
2023-01-21T15:12:24.173Z,76.10
2023-01-21T15:14:58.500Z,66.20
2023-01-21T15:18:05.202Z,59.30
2023-01-21T15:20:49.749Z,67.63
2023-01-21T15:23:37.960Z,64.33
2023-01-21T15:26:13.364Z,69.07
2023-01-21T15:28:55.845Z,60.57
2023-01-21T15:31:25.976Z,75.93
2023-01-21T15:34:07.168Z,71.87
2023-01-21T15:36:47.057Z,75.60
2023-01-21T15:39:19.304Z,64.73
2023-01-21T15:42:02.191Z,69.90
2023-01-21T15:45:09.742Z,69.83
2023-01-21T15:48:08.716Z,64.40
2023-01-21T15:50:46.436Z,59.27
2023-01-21T15:53:31.256Z,62.60
2023-01-21T15:56:41.805Z,68.23
2023-01-21T15:59:21.519Z,67.73
2023-01-21T16:02:07.561Z,71.87
2023-01-21T16:05:05.520Z,72.37
2023-01-21T16:07:57.640Z,70.67
2023-01-21T16:10:40.075Z,68.93
2023-01-21T16:13:28.130Z,71.63
2023-01-21T16:16:48.955Z,65.43
2023-01-21T16:19:33.859Z,64.50
2023-01-21T16:22:07.517Z,69.50
2023-01-21T16:24:47.504Z,72.43
2023-01-21T16:27:24.672Z,69.20
2023-01-21T16:30:01.641Z,70.07
2023-01-21T16:32:30.911Z,67.23
2023-01-21T16:35:01.260Z,63.03
2023-01-21T16:37:30.073Z,66.77
2023-01-21T16:40:29.308Z,70.57
2023-01-21T16:43:21.982Z,67.70
2023-01-21T16:45:56.817Z,64.60
2023-01-21T16:48:29.862Z,70.20
2023-01-21T16:50:57.438Z,64.57
2023-01-21T16:53:27.811Z,64.33
2023-01-21T16:55:59.318Z,69.10
2023-01-21T16:58:32.454Z,74.10
2023-01-21T17:01:19.951Z,78.27
2023-01-21T17:03:49.880Z,67.00
2023-01-21T17:06:22.237Z,70.53
2023-01-21T17:08:55.347Z,63.63
2023-01-21T17:11:32.525Z,67.93
2023-01-21T17:14:10.983Z,68.13
2023-01-21T17:16:40.780Z,68.63
2023-01-21T17:19:18.286Z,67.47
2023-01-21T17:21:55.486Z,64.23
2023-01-21T17:24:29.829Z,69.57
2023-01-21T17:27:02.642Z,68.33
2023-01-21T17:29:32.799Z,66.00
2023-01-21T17:32:06.041Z,68.23
2023-01-21T17:34:36.990Z,64.43
2023-01-21T17:37:43.157Z,72.73
2023-01-21T17:40:39.973Z,62.10
2023-01-21T17:43:18.205Z,64.40
2023-01-21T17:45:50.135Z,66.90
2023-01-21T17:48:30.827Z,68.53
2023-01-21T17:51:30.726Z,75.07
2023-01-21T17:54:09.564Z,71.90
2023-01-21T17:56:58.119Z,72.37
2023-01-21T17:59:38.134Z,70.07
2023-01-21T18:02:09.537Z,70.17
2023-01-21T18:04:36.774Z,70.67
2023-01-21T18:07:13.306Z,76.03
2023-01-21T18:09:41.493Z,75.20
2023-01-21T18:12:14.127Z,67.57
2023-01-21T18:14:41.814Z,74.10
2023-01-21T18:17:21.316Z,68.30
2023-01-21T18:19:48.528Z,67.73
2023-01-21T18:22:30.291Z,76.93
2023-01-21T18:25:02.842Z,69.23
2023-01-21T18:27:31.394Z,75.33
2023-01-21T18:29:59.239Z,72.13
2023-01-21T18:32:31.196Z,74.10
2023-01-21T18:35:00.692Z,64.83
2023-01-21T18:37:32.285Z,67.50
2023-01-21T18:39:59.390Z,71.63
2023-01-21T18:42:26.913Z,72.70
2023-01-21T18:44:54.034Z,72.93
2023-01-21T18:47:23.460Z,69.00
2023-01-21T18:49:51.163Z,73.80
2023-01-21T18:52:23.195Z,68.50
2023-01-21T18:54:52.670Z,77.77
2023-01-21T18:57:22.376Z,68.43
2023-01-21T18:59:49.663Z,81.27
2023-01-21T19:02:21.549Z,69.90
2023-01-21T19:04:50.820Z,71.13
2023-01-21T19:07:22.635Z,78.30
2023-01-21T19:09:51.171Z,79.77
2023-01-21T19:12:21.102Z,77.83
2023-01-21T19:14:48.868Z,79.87
2023-01-21T19:17:27.097Z,80.67
2023-01-21T19:19:57.977Z,79.87
2023-01-21T19:22:27.759Z,85.00
2023-01-21T19:24:54.974Z,82.03
2023-01-21T19:27:35.277Z,79.33
2023-01-21T19:30:21.577Z,80.10
2023-01-21T19:32:52.770Z,80.60
2023-01-21T19:35:26.522Z,77.57
2023-01-21T19:37:56.278Z,77.67
2023-01-21T19:40:26.502Z,77.93
2023-01-21T19:42:56.729Z,73.87
2023-01-21T19:45:29.374Z,71.07
2023-01-21T19:47:56.690Z,76.60
2023-01-21T19:50:26.621Z,84.23
2023-01-21T19:52:55.066Z,88.70
2023-01-21T19:55:24.873Z,81.23
2023-01-21T19:57:58.193Z,82.87
2023-01-21T20:00:34.814Z,78.47
2023-01-21T20:03:04.574Z,79.53
2023-01-21T20:05:35.659Z,82.33
2023-01-21T20:08:03.059Z,88.10
2023-01-21T20:10:31.534Z,83.20
2023-01-21T20:12:58.914Z,81.83
2023-01-21T20:15:34.273Z,81.20
2023-01-21T20:18:06.724Z,78.03
2023-01-21T20:20:36.388Z,82.40
2023-01-21T20:23:03.610Z,73.63
2023-01-21T20:25:38.806Z,77.90
2023-01-21T20:28:21.084Z,75.30
2023-01-21T20:30:49.789Z,78.67
2023-01-21T20:33:22.121Z,79.30
2023-01-21T20:35:56.846Z,78.90
2023-01-21T20:38:30.159Z,84.47
2023-01-21T20:40:58.265Z,83.63
2023-01-21T20:43:25.486Z,84.67
2023-01-21T20:46:02.366Z,88.47
2023-01-21T20:48:38.936Z,90.73
2023-01-21T20:51:06.527Z,86.47
2023-01-21T20:53:33.720Z,91.50
2023-01-21T20:56:06.644Z,86.40
2023-01-21T20:58:33.793Z,82.17
2023-01-21T21:01:03.185Z,79.73
2023-01-21T21:03:30.354Z,82.60
2023-01-21T21:05:59.954Z,86.07
2023-01-21T21:08:27.104Z,83.97
2023-01-21T21:10:55.384Z,79.20
2023-01-21T21:13:24.897Z,83.87
2023-01-21T21:15:53.283Z,89.13
2023-01-21T21:18:20.428Z,86.37
2023-01-21T21:20:50.782Z,83.90
2023-01-21T21:23:20.974Z,83.07
2023-01-21T21:25:49.394Z,79.47
2023-01-21T21:28:21.292Z,85.80
2023-01-21T21:30:50.811Z,77.90
2023-01-21T21:33:20.820Z,76.30
2023-01-21T21:35:48.383Z,70.50
2023-01-21T21:38:23.052Z,82.93
2023-01-21T21:40:53.231Z,76.97
2023-01-21T21:43:40.839Z,77.93
2023-01-21T21:46:27.512Z,77.37
2023-01-21T21:48:54.687Z,73.50
2023-01-21T21:51:31.738Z,78.03
2023-01-21T21:54:01.550Z,71.17
2023-01-21T21:56:28.691Z,78.73
2023-01-21T21:58:55.860Z,74.50
2023-01-21T22:01:31.140Z,73.20
2023-01-21T22:04:02.785Z,65.23
2023-01-21T22:06:32.593Z,65.27
2023-01-21T22:09:03.643Z,63.43
2023-01-21T22:11:33.467Z,62.37
2023-01-21T22:14:06.918Z,70.07
2023-01-21T22:16:36.504Z,57.90
2023-01-21T22:19:03.768Z,59.57
2023-01-21T22:21:33.336Z,57.23
2023-01-21T22:24:08.381Z,63.13
2023-01-21T22:26:35.869Z,60.37
2023-01-21T22:29:06.240Z,62.30
2023-01-21T22:31:33.613Z,59.70
2023-01-21T22:34:07.669Z,62.47
2023-01-21T22:36:34.916Z,59.63
2023-01-21T22:39:07.370Z,57.23
2023-01-21T22:41:37.027Z,57.23
2023-01-21T22:44:11.444Z,60.80
2023-01-21T22:46:38.642Z,53.63
2023-01-21T22:49:07.898Z,52.70
2023-01-21T22:51:35.031Z,53.13
2023-01-21T22:54:02.305Z,53.50
2023-01-21T22:56:50.324Z,53.23
2023-01-21T22:59:17.035Z,48.30
2023-01-21T23:01:48.668Z,54.33
2023-01-21T23:04:18.387Z,56.43
2023-01-21T23:06:48.922Z,59.63
2023-01-21T23:09:20.574Z,58.03
2023-01-21T23:11:52.575Z,53.60
2023-01-21T23:14:20.152Z,54.10
2023-01-21T23:16:47.323Z,52.70
2023-01-21T23:19:19.705Z,51.53
2023-01-21T23:21:46.890Z,53.30
2023-01-21T23:24:18.514Z,50.40
2023-01-21T23:26:48.123Z,52.30
2023-01-21T23:29:15.298Z,49.80
2023-01-21T23:31:42.675Z,50.23
2023-01-21T23:34:14.369Z,49.20
2023-01-21T23:36:41.554Z,52.63
2023-01-21T23:39:11.389Z,51.57
2023-01-21T23:41:38.542Z,53.80
2023-01-21T23:44:10.556Z,54.30
2023-01-21T23:46:40.485Z,49.40
2023-01-21T23:49:10.103Z,55.33
2023-01-21T23:51:41.764Z,51.93
2023-01-21T23:54:14.014Z,53.83
2023-01-21T23:56:41.352Z,54.90
2023-01-21T23:59:11.862Z,59.00
